Time;durP1;ratioP1;P1;durP2;ratioP2;P2;SDS_P1;SDS_P2;PMS_P1;PMS_P2;Temp;Humidity;BMP_temperature;BMP_pressure;BME280_temperature;BME280_humidity;BME280_pressure;Samples;Min_cycle;Max_cycle;Signal;HPM_P1;HPM_P2
2022/03/26 00:00:49;;;;;;;32.30;18.30;;;6.20;63.30;;;;;;5093274;28;20610;-79
2022/03/26 00:03:16;;;;;;;30.10;17.50;;;5.90;63.00;;;;;;5093151;28;20261;-78
2022/03/26 00:05:44;;;;;;;33.07;19.47;;;5.80;69.10;;;;;;5093314;28;20200;-77
2022/03/26 00:08:11;;;;;;;27.57;18.30;;;5.60;79.10;;;;;;5093081;28;20245;-79
2022/03/26 00:10:39;;;;;;;29.37;18.83;;;5.50;85.20;;;;;;5093214;28;20295;-78
2022/03/26 00:13:06;;;;;;;28.37;18.37;;;5.30;90.90;;;;;;5093114;28;20583;-77
2022/03/26 00:15:32;;;;;;;28.23;17.90;;;5.30;91.90;;;;;;5093144;28;20552;-77
2022/03/26 00:17:59;;;;;;;31.37;20.27;;;5.20;95.10;;;;;;5093238;28;20261;-77
2022/03/26 00:20:26;;;;;;;30.97;20.50;;;5.10;96.20;;;;;;5093145;28;20200;-77
2022/03/26 00:22:54;;;;;;;33.50;21.20;;;5.20;99.00;;;;;;5093024;28;20293;-77
2022/03/26 00:25:21;;;;;;;32.20;19.83;;;5.40;99.90;;;;;;5093330;28;20196;-77
2022/03/26 00:27:48;;;;;;;32.10;19.67;;;5.20;99.90;;;;;;5096302;28;20200;-77
2022/03/26 00:30:15;;;;;;;32.70;21.10;;;5.00;99.90;;;;;;5097498;28;20234;-77
2022/03/26 00:32:42;;;;;;;32.67;21.43;;;5.00;99.90;;;;;;5097382;28;20203;-77
2022/03/26 00:35:10;;;;;;;35.10;20.20;;;4.80;99.90;;;;;;5095067;28;20192;-77
2022/03/26 00:37:37;;;;;;;34.13;20.10;;;4.70;99.90;;;;;;5093614;28;20199;-77
2022/03/26 00:40:07;;;;;;;32.43;20.53;;;4.70;99.90;;;;;;5093386;28;20655;-77
2022/03/26 00:42:34;;;;;;;32.63;19.73;;;4.70;99.90;;;;;;5095050;28;20215;-77
2022/03/26 00:45:01;;;;;;;30.63;19.77;;;4.80;99.90;;;;;;5097290;28;20222;-77
2022/03/26 00:47:28;;;;;;;35.83;19.63;;;4.90;99.90;;;;;;5096818;28;20196;-78
2022/03/26 00:49:55;;;;;;;33.13;19.57;;;4.80;99.90;;;;;;5097141;28;20199;-77
2022/03/26 00:52:21;;;;;;;30.30;19.97;;;4.70;99.90;;;;;;5096986;28;20196;-77
2022/03/26 00:54:48;;;;;;;30.53;19.10;;;4.90;99.90;;;;;;5096865;28;20199;-77
2022/03/26 00:57:16;;;;;;;32.53;20.73;;;4.80;99.90;;;;;;5096984;28;20275;-77
2022/03/26 00:59:43;;;;;;;36.30;19.60;;;4.70;99.90;;;;;;5096538;28;20196;-77
2022/03/26 01:02:10;;;;;;;32.10;20.77;;;4.70;99.90;;;;;;5096636;28;20211;-77
2022/03/26 01:04:38;;;;;;;34.30;19.20;;;4.70;99.90;;;;;;5096973;28;20199;-77
2022/03/26 01:07:05;;;;;;;31.60;18.83;;;4.70;99.90;;;;;;5096881;28;20257;-77
2022/03/26 01:09:31;;;;;;;31.07;18.77;;;4.70;99.90;;;;;;5096638;28;20254;-77
2022/03/26 01:11:58;;;;;;;31.17;19.47;;;4.70;99.90;;;;;;5096577;28;20200;-77
2022/03/26 01:14:26;;;;;;;30.67;19.97;;;4.40;99.90;;;;;;5096389;28;20549;-77
2022/03/26 01:16:53;;;;;;;33.80;22.30;;;4.20;99.90;;;;;;5096514;28;20195;-77
2022/03/26 01:19:20;;;;;;;31.80;20.07;;;4.10;99.90;;;;;;5096705;28;20251;-77
2022/03/26 01:21:46;;;;;;;32.77;20.97;;;4.10;99.90;;;;;;5096899;28;20239;-77
2022/03/26 01:24:13;;;;;;;33.83;21.47;;;4.20;99.90;;;;;;5096728;28;20338;-77
2022/03/26 01:26:40;;;;;;;36.30;20.70;;;4.30;99.90;;;;;;5097266;28;20200;-77
2022/03/26 01:29:07;;;;;;;33.17;20.30;;;4.30;99.90;;;;;;5096942;28;20199;-77
2022/03/26 01:31:37;;;;;;;33.53;20.43;;;4.10;99.90;;;;;;5096720;28;20203;-77
2022/03/26 01:34:04;;;;;;;32.67;20.73;;;4.00;99.90;;;;;;5096353;28;20210;-77
2022/03/26 01:36:31;;;;;;;34.50;21.10;;;3.90;99.90;;;;;;5096197;28;20625;-77
2022/03/26 01:38:58;;;;;;;30.80;19.83;;;3.80;99.90;;;;;;5096185;28;20669;-77
2022/03/26 01:41:25;;;;;;;28.90;19.93;;;3.90;99.90;;;;;;5095953;28;20249;-77
2022/03/26 01:43:51;;;;;;;33.43;20.47;;;3.80;99.90;;;;;;5095832;28;20312;-77
2022/03/26 01:46:20;;;;;;;29.17;19.23;;;3.70;99.90;;;;;;5095701;28;20719;-75
2022/03/26 01:48:49;;;;;;;32.80;20.50;;;3.60;99.90;;;;;;5095742;28;20203;-77
2022/03/26 01:51:16;;;;;;;42.07;26.80;;;3.70;99.90;;;;;;5096556;28;20200;-77
2022/03/26 01:53:45;;;;;;;32.40;21.07;;;3.60;99.90;;;;;;5095342;28;20204;-77
2022/03/26 01:56:13;;;;;;;34.50;20.40;;;3.80;99.90;;;;;;5095826;28;20204;-77
2022/03/26 01:58:41;;;;;;;36.13;22.13;;;3.60;99.90;;;;;;5095493;28;20204;-77
2022/03/26 02:01:07;;;;;;;37.50;20.93;;;3.50;99.90;;;;;;5096145;28;20202;-77
2022/03/26 02:03:35;;;;;;;32.27;20.97;;;3.40;99.90;;;;;;5096168;28;20220;-77
2022/03/26 02:06:03;;;;;;;34.03;21.23;;;3.50;99.90;;;;;;5096250;28;20215;-77
2022/03/26 02:08:31;;;;;;;33.33;20.77;;;3.40;99.90;;;;;;5095922;28;20204;-77
2022/03/26 02:10:58;;;;;;;33.73;20.80;;;3.30;99.90;;;;;;5096900;28;20202;-77
2022/03/26 02:13:24;;;;;;;33.83;21.40;;;3.10;99.90;;;;;;5095975;28;20202;-77
2022/03/26 02:15:51;;;;;;;33.30;20.70;;;3.20;99.90;;;;;;5096491;28;20555;-76
2022/03/26 02:18:18;;;;;;;32.13;19.53;;;3.00;99.90;;;;;;5096529;28;20198;-77
2022/03/26 02:20:47;;;;;;;30.83;19.90;;;2.90;99.90;;;;;;5096662;28;20194;-76
2022/03/26 02:23:14;;;;;;;31.60;20.53;;;2.90;99.90;;;;;;5096051;28;20644;-76
2022/03/26 02:25:41;;;;;;;35.20;20.60;;;2.90;99.90;;;;;;5096489;28;20196;-77
2022/03/26 02:28:09;;;;;;;31.80;19.77;;;2.90;99.90;;;;;;5096330;28;20231;-76
2022/03/26 02:30:36;;;;;;;31.23;19.73;;;2.70;99.90;;;;;;5097751;28;20200;-76
2022/03/26 02:33:03;;;;;;;34.40;21.03;;;2.70;99.90;;;;;;5097220;28;20615;-77
2022/03/26 02:35:29;;;;;;;31.57;20.60;;;2.70;99.90;;;;;;5097721;28;20201;-77
2022/03/26 02:37:57;;;;;;;37.23;20.47;;;2.60;99.90;;;;;;5097544;28;20254;-77
2022/03/26 02:40:24;;;;;;;32.40;21.13;;;2.50;99.90;;;;;;5098348;28;20232;-77
2022/03/26 02:42:50;;;;;;;31.53;19.70;;;2.60;99.90;;;;;;5098367;28;20198;-77
2022/03/26 02:45:17;;;;;;;32.87;20.27;;;2.50;99.90;;;;;;5098040;28;20200;-77
2022/03/26 02:47:44;;;;;;;28.00;19.00;;;2.50;99.90;;;;;;5097872;28;20197;-77
2022/03/26 02:50:11;;;;;;;30.40;19.53;;;2.70;99.90;;;;;;5097293;28;20249;-77
2022/03/26 02:52:37;;;;;;;31.47;20.17;;;2.70;99.90;;;;;;5096517;28;20200;-77
2022/03/26 02:55:09;;;;;;;30.77;20.13;;;2.60;99.90;;;;;;5099286;28;20261;-76
2022/03/26 02:57:35;;;;;;;30.17;19.97;;;2.40;99.90;;;;;;5100010;28;20207;-77
2022/03/26 03:00:02;;;;;;;32.97;20.47;;;2.40;99.90;;;;;;5098605;28;20196;-77
2022/03/26 03:02:29;;;;;;;31.07;20.37;;;2.20;99.90;;;;;;5098425;28;20197;-77
2022/03/26 03:04:55;;;;;;;30.03;19.30;;;2.00;99.90;;;;;;5099239;28;20228;-76
2022/03/26 03:07:22;;;;;;;32.93;19.40;;;1.90;99.90;;;;;;5099055;28;20213;-77
2022/03/26 03:09:49;;;;;;;30.67;19.67;;;1.90;99.90;;;;;;5098736;28;20196;-77
2022/03/26 03:12:17;;;;;;;31.23;21.33;;;1.90;99.90;;;;;;5098438;28;20192;-78
2022/03/26 03:14:44;;;;;;;34.07;20.40;;;1.90;99.90;;;;;;5098460;28;20196;-77
2022/03/26 03:17:10;;;;;;;34.13;20.13;;;1.80;99.90;;;;;;5096921;28;20265;-77
2022/03/26 03:19:37;;;;;;;29.27;19.77;;;2.00;99.90;;;;;;5096973;28;20233;-77
2022/03/26 03:22:04;;;;;;;32.70;19.87;;;1.80;99.90;;;;;;5097002;28;20254;-77
2022/03/26 03:24:31;;;;;;;35.03;20.87;;;1.70;99.90;;;;;;5096941;28;20231;-77
2022/03/26 03:26:57;;;;;;;37.60;19.27;;;2.00;99.90;;;;;;5096782;28;20197;-77
2022/03/26 03:29:25;;;;;;;37.13;21.27;;;2.10;99.90;;;;;;5097694;28;20197;-78
2022/03/26 03:31:52;;;;;;;34.40;19.93;;;2.20;99.90;;;;;;5096295;28;20241;-77
2022/03/26 03:34:19;;;;;;;34.47;21.30;;;1.80;99.90;;;;;;5096152;28;20747;-77
2022/03/26 03:36:46;;;;;;;35.90;21.50;;;1.80;99.90;;;;;;5095880;28;20203;-77
2022/03/26 03:39:12;;;;;;;32.70;21.00;;;1.80;99.90;;;;;;5096160;28;20200;-78
2022/03/26 03:41:39;;;;;;;31.37;19.87;;;1.90;99.90;;;;;;5096057;28;20221;-77
2022/03/26 03:44:06;;;;;;;31.27;19.23;;;2.00;99.90;;;;;;5095780;28;20230;-78
2022/03/26 03:46:35;;;;;;;30.57;19.63;;;2.00;99.90;;;;;;5095955;28;20544;-78
2022/03/26 03:49:02;;;;;;;33.90;20.30;;;1.90;99.90;;;;;;5096297;28;20559;-77
2022/03/26 03:51:28;;;;;;;35.10;20.17;;;1.90;99.90;;;;;;5095432;28;20249;-77
2022/03/26 03:53:55;;;;;;;29.73;19.37;;;2.00;99.90;;;;;;5095394;28;20200;-77
2022/03/26 03:56:22;;;;;;;33.47;19.77;;;1.80;99.90;;;;;;5095746;28;20227;-77
2022/03/26 03:58:49;;;;;;;36.57;20.73;;;1.70;99.90;;;;;;5095274;28;20200;-77
2022/03/26 04:01:16;;;;;;;30.73;20.60;;;1.40;99.90;;;;;;5095386;28;20206;-77
2022/03/26 04:03:43;;;;;;;29.43;19.37;;;1.30;99.90;;;;;;5094936;28;20556;-77
2022/03/26 04:06:10;;;;;;;33.47;20.00;;;1.20;99.90;;;;;;5094905;28;20657;-77
2022/03/26 04:08:37;;;;;;;34.10;20.20;;;1.40;99.90;;;;;;5094710;28;20200;-78
2022/03/26 04:11:03;;;;;;;32.67;19.77;;;1.70;99.90;;;;;;5094653;28;20258;-77
2022/03/26 04:13:30;;;;;;;33.20;19.57;;;1.70;99.90;;;;;;5094292;28;20204;-77
2022/03/26 04:15:57;;;;;;;31.63;20.63;;;1.60;99.90;;;;;;5094347;28;20196;-77
2022/03/26 04:18:24;;;;;;;35.70;20.70;;;1.30;99.90;;;;;;5097618;28;20200;-77
2022/03/26 04:20:53;;;;;;;36.40;20.60;;;1.40;99.90;;;;;;5098170;28;20232;-77
2022/03/26 04:23:20;;;;;;;35.77;18.87;;;1.50;99.90;;;;;;5099255;28;20207;-77
2022/03/26 04:25:47;;;;;;;32.37;19.50;;;1.50;99.90;;;;;;5098487;28;20747;-78
2022/03/26 04:28:14;;;;;;;31.70;20.10;;;1.20;99.90;;;;;;5098421;28;20548;-77
2022/03/26 04:30:41;;;;;;;36.53;19.90;;;1.10;99.90;;;;;;5098513;28;20241;-77
2022/03/26 04:33:08;;;;;;;32.33;20.30;;;0.90;99.90;;;;;;5098513;28;20196;-77
2022/03/26 04:35:35;;;;;;;31.33;19.70;;;1.10;99.90;;;;;;5098805;28;20257;-77
2022/03/26 04:38:03;;;;;;;32.90;19.23;;;1.20;99.90;;;;;;5099271;28;20200;-77
2022/03/26 04:40:30;;;;;;;32.03;19.50;;;1.10;99.90;;;;;;5099329;28;20605;-77
2022/03/26 04:42:57;;;;;;;35.07;19.53;;;1.10;99.90;;;;;;5098807;28;20197;-77
2022/03/26 04:45:24;;;;;;;37.53;20.50;;;1.20;99.90;;;;;;5099250;28;20289;-77
2022/03/26 04:47:51;;;;;;;31.67;18.40;;;0.90;99.90;;;;;;5098738;28;20196;-77
2022/03/26 04:50:17;;;;;;;32.50;20.03;;;0.70;99.90;;;;;;5097167;28;20597;-77
2022/03/26 04:52:44;;;;;;;36.93;20.53;;;0.70;99.90;;;;;;5097742;28;20196;-77
2022/03/26 04:55:13;;;;;;;30.93;20.27;;;0.70;99.90;;;;;;5097994;28;20222;-77
2022/03/26 04:57:41;;;;;;;36.03;20.03;;;0.90;99.90;;;;;;5098314;28;20200;-77
2022/03/26 05:00:09;;;;;;;33.00;20.90;;;0.80;99.90;;;;;;5098881;28;20196;-77
2022/03/26 05:02:39;;;;;;;34.40;21.23;;;0.60;99.90;;;;;;5100397;28;20579;-77
2022/03/26 05:05:06;;;;;;;33.07;20.50;;;0.50;99.90;;;;;;5099871;28;20224;-76
2022/03/26 05:07:48;;;;;;;33.30;20.57;;;0.40;99.90;;;;;;5100669;28;20200;-77
2022/03/26 05:10:18;;;;;;;35.73;21.03;;;0.50;99.90;;;;;;5099462;28;20199;-77
2022/03/26 05:12:45;;;;;;;33.27;21.10;;;0.40;99.90;;;;;;5099291;28;20234;-77
2022/03/26 05:15:14;;;;;;;34.60;20.33;;;0.30;99.90;;;;;;5098418;28;20717;-76
2022/03/26 05:17:41;;;;;;;38.03;20.67;;;0.20;99.90;;;;;;5098303;28;20205;-77
2022/03/26 05:20:10;;;;;;;34.87;21.03;;;0.10;99.90;;;;;;5097946;28;20192;-77
2022/03/26 05:22:37;;;;;;;33.13;19.90;;;0.10;99.90;;;;;;5098483;28;20318;-77
2022/03/26 05:25:04;;;;;;;38.47;21.37;;;0.10;99.90;;;;;;5098839;28;20297;-76
2022/03/26 05:27:32;;;;;;;40.43;20.97;;;0.10;99.90;;;;;;5098307;28;20193;-76
2022/03/26 05:29:59;;;;;;;32.57;20.53;;;0.00;99.90;;;;;;5097801;28;20249;-76
2022/03/26 05:32:26;;;;;;;35.10;19.90;;;0.00;99.90;;;;;;5098924;28;20197;-76
2022/03/26 05:34:53;;;;;;;31.00;20.27;;;0.10;99.90;;;;;;5099661;28;20257;-76
2022/03/26 05:37:20;;;;;;;37.03;21.17;;;0.10;99.90;;;;;;5099346;28;20196;-77
2022/03/26 05:39:47;;;;;;;34.33;20.20;;;0.20;99.90;;;;;;5098497;28;20200;-76
2022/03/26 05:42:15;;;;;;;36.37;20.40;;;0.50;99.90;;;;;;5098325;28;20646;-77
2022/03/26 05:44:43;;;;;;;35.23;19.67;;;0.70;99.90;;;;;;5098330;28;20289;-76
2022/03/26 05:47:10;;;;;;;34.60;21.30;;;0.90;99.90;;;;;;5097686;28;20196;-77
2022/03/26 05:49:37;;;;;;;33.90;20.03;;;0.90;99.90;;;;;;5097554;28;20552;-77
2022/03/26 05:52:04;;;;;;;38.57;21.40;;;1.00;99.90;;;;;;5098010;28;20265;-77
2022/03/26 05:54:31;;;;;;;35.40;20.53;;;1.00;99.90;;;;;;5105213;28;20659;-77
2022/03/26 05:56:57;;;;;;;33.90;20.20;;;1.10;99.90;;;;;;5106114;28;20261;-76
2022/03/26 05:59:26;;;;;;;38.60;20.60;;;1.30;99.90;;;;;;5106470;28;20222;-77
2022/03/26 06:01:54;;;;;;;37.63;20.50;;;1.30;99.90;;;;;;5106678;28;20202;-77
2022/03/26 06:04:23;;;;;;;34.50;20.47;;;1.40;99.90;;;;;;5106911;28;20229;-77
2022/03/26 06:06:49;;;;;;;31.00;19.50;;;1.30;99.90;;;;;;5106741;28;20200;-77
2022/03/26 06:09:16;;;;;;;32.00;21.03;;;1.50;99.90;;;;;;5106804;28;20207;-77
2022/03/26 06:11:43;;;;;;;31.13;19.90;;;1.60;99.90;;;;;;5106830;28;20246;-77
2022/03/26 06:14:09;;;;;;;35.73;20.53;;;1.80;99.90;;;;;;5104578;28;20195;-78
2022/03/26 06:16:36;;;;;;;34.77;21.10;;;1.80;99.90;;;;;;5105038;28;20655;-78
2022/03/26 06:19:04;;;;;;;34.27;20.57;;;1.90;99.90;;;;;;5105933;28;20299;-77
2022/03/26 06:21:33;;;;;;;30.97;18.80;;;1.80;99.90;;;;;;5105770;28;20240;-77
2022/03/26 06:24:00;;;;;;;33.17;19.70;;;2.00;99.90;;;;;;5106559;28;20297;-77
2022/03/26 06:26:27;;;;;;;34.03;20.17;;;2.00;99.90;;;;;;5106790;28;20563;-77
2022/03/26 06:28:54;;;;;;;33.20;19.53;;;2.10;99.90;;;;;;5102048;28;20200;-77
2022/03/26 06:31:21;;;;;;;34.90;18.97;;;2.10;99.90;;;;;;5106825;28;20205;-77
2022/03/26 06:33:48;;;;;;;36.67;19.53;;;2.10;99.90;;;;;;5107048;28;20258;-77
2022/03/26 06:36:16;;;;;;;32.83;19.70;;;2.30;99.90;;;;;;5106974;28;20208;-77
2022/03/26 06:38:44;;;;;;;30.83;19.23;;;2.30;99.90;;;;;;5106371;28;20249;-77
2022/03/26 06:41:11;;;;;;;34.33;19.83;;;2.40;99.90;;;;;;5107601;28;20235;-77
2022/03/26 06:43:38;;;;;;;32.63;21.00;;;2.60;99.90;;;;;;5107442;28;20196;-77
2022/03/26 06:46:05;;;;;;;31.43;19.77;;;2.70;99.90;;;;;;5107603;28;20225;-77
2022/03/26 06:48:32;;;;;;;30.87;18.43;;;2.80;99.90;;;;;;5108273;28;20193;-77
2022/03/26 06:51:00;;;;;;;30.70;19.63;;;2.90;99.90;;;;;;5106232;28;20645;-78
2022/03/26 06:53:28;;;;;;;33.20;19.37;;;3.10;99.90;;;;;;5106804;28;20209;-77
2022/03/26 06:55:56;;;;;;;31.23;19.73;;;3.30;99.90;;;;;;5107722;28;20198;-78
2022/03/26 06:58:22;;;;;;;32.87;20.00;;;3.40;99.90;;;;;;5107302;28;20200;-78
2022/03/26 07:00:49;;;;;;;34.20;18.50;;;3.50;99.90;;;;;;5107627;28;20197;-78
2022/03/26 07:03:16;;;;;;;35.33;20.33;;;3.70;99.90;;;;;;5106773;28;20248;-78
2022/03/26 07:05:43;;;;;;;31.13;19.40;;;4.00;99.90;;;;;;5107414;28;20232;-78
2022/03/26 07:08:10;;;;;;;33.00;19.13;;;4.20;99.90;;;;;;5105870;28;20206;-78
2022/03/26 07:10:41;;;;;;;33.70;20.33;;;4.30;99.90;;;;;;5105746;28;20195;-77
2022/03/26 07:13:07;;;;;;;33.27;20.23;;;4.50;99.90;;;;;;5106096;28;20240;-78
2022/03/26 07:15:34;;;;;;;32.63;19.97;;;4.70;99.90;;;;;;5104566;28;20197;-77
2022/03/26 07:18:01;;;;;;;32.90;21.20;;;5.00;99.90;;;;;;5101704;28;20199;-78
2022/03/26 07:20:28;;;;;;;31.33;20.27;;;5.20;99.90;;;;;;5102960;28;20253;-76
2022/03/26 07:22:54;;;;;;;33.33;21.50;;;5.40;99.90;;;;;;5055581;28;20236;-82
2022/03/26 07:25:21;;;;;;;31.97;19.53;;;5.70;99.90;;;;;;5054932;28;20230;-79
2022/03/26 07:27:49;;;;;;;40.17;21.07;;;5.90;99.90;;;;;;5054100;28;20220;-78
2022/03/26 07:30:16;;;;;;;31.13;20.03;;;6.20;99.90;;;;;;5053698;28;20251;-81
2022/03/26 07:32:42;;;;;;;37.77;22.10;;;6.50;99.90;;;;;;5053671;28;20706;-79
2022/03/26 07:35:09;;;;;;;37.30;20.87;;;6.80;99.90;;;;;;5053422;28;20205;-77
2022/03/26 07:37:36;;;;;;;35.03;22.03;;;7.20;99.90;;;;;;5053882;28;20197;-78
2022/03/26 07:40:04;;;;;;;34.67;22.30;;;7.50;99.90;;;;;;5054205;28;20230;-78
2022/03/26 07:42:30;;;;;;;35.27;21.00;;;7.80;99.90;;;;;;5053536;28;20193;-78
2022/03/26 07:44:58;;;;;;;32.57;21.57;;;8.10;99.90;;;;;;5053410;28;20221;-78
2022/03/26 07:47:25;;;;;;;37.57;21.10;;;8.40;99.90;;;;;;5054101;28;20197;-78
2022/03/26 07:49:52;;;;;;;34.27;21.73;;;8.50;99.90;;;;;;5053740;28;20201;-78
2022/03/26 07:52:18;;;;;;;33.70;21.57;;;8.80;99.90;;;;;;5052561;28;20193;-78
2022/03/26 07:54:45;;;;;;;32.90;20.60;;;8.90;99.90;;;;;;5053605;28;20267;-77
2022/03/26 07:57:12;;;;;;;34.90;20.83;;;9.10;99.90;;;;;;5053445;28;20206;-78
2022/03/26 07:59:38;;;;;;;33.83;21.90;;;9.30;99.90;;;;;;5053420;28;20205;-78
2022/03/26 08:02:07;;;;;;;29.87;20.17;;;9.50;99.90;;;;;;5053457;28;20194;-79
2022/03/26 08:04:35;;;;;;;31.43;20.77;;;9.60;99.90;;;;;;5055510;28;20213;-78
2022/03/26 08:07:01;;;;;;;35.47;21.43;;;9.90;98.70;;;;;;5053817;28;20202;-78
2022/03/26 08:09:28;;;;;;;34.40;21.73;;;10.10;97.10;;;;;;5053122;28;20274;-77
2022/03/26 08:11:55;;;;;;;37.80;22.20;;;10.40;94.60;;;;;;5053216;28;20197;-79
2022/03/26 08:14:21;;;;;;;35.63;22.63;;;10.50;91.70;;;;;;5054428;28;20193;-78
2022/03/26 08:16:48;;;;;;;35.63;22.23;;;10.70;86.30;;;;;;5053002;28;20198;-77
2022/03/26 08:19:17;;;;;;;30.30;21.73;;;10.90;80.50;;;;;;5052921;28;20201;-78
2022/03/26 08:21:43;;;;;;;32.50;22.37;;;11.10;74.00;;;;;;5073261;28;20235;-77
2022/03/26 08:24:12;;;;;;;40.37;22.97;;;11.10;71.20;;;;;;5093064;28;20197;-77
2022/03/26 08:26:39;;;;;;;38.73;22.13;;;11.20;69.70;;;;;;5092601;28;20224;-77
2022/03/26 08:29:06;;;;;;;31.47;22.30;;;11.20;68.20;;;;;;5092859;28;20193;-78
2022/03/26 08:31:33;;;;;;;30.60;22.13;;;11.40;65.70;;;;;;5092719;28;20648;-77
2022/03/26 08:34:01;;;;;;;34.10;22.60;;;11.70;66.10;;;;;;5092829;28;20242;-78
2022/03/26 08:36:30;;;;;;;31.43;21.93;;;11.90;64.80;;;;;;5092695;28;20207;-78
2022/03/26 08:38:57;;;;;;;33.20;22.57;;;11.90;63.40;;;;;;5092988;28;20192;-77
2022/03/26 08:41:24;;;;;;;33.60;20.90;;;12.00;60.70;;;;;;5092677;28;20246;-77
2022/03/26 08:43:51;;;;;;;34.20;22.63;;;12.10;60.10;;;;;;5092387;28;20549;-77
2022/03/26 08:46:19;;;;;;;32.37;22.03;;;12.40;59.30;;;;;;5093110;28;20221;-77
2022/03/26 08:48:46;;;;;;;32.90;23.10;;;12.40;57.30;;;;;;5092983;28;20647;-77
2022/03/26 08:51:13;;;;;;;31.10;23.13;;;12.50;57.50;;;;;;5093243;28;20196;-76
2022/03/26 08:53:41;;;;;;;36.10;23.57;;;12.70;57.50;;;;;;5093219;28;20236;-77
2022/03/26 08:56:08;;;;;;;32.57;22.47;;;12.90;56.00;;;;;;5093798;28;20197;-78
2022/03/26 08:58:36;;;;;;;36.40;22.93;;;13.20;55.20;;;;;;5093345;28;20321;-77
2022/03/26 09:01:03;;;;;;;32.83;22.40;;;13.30;51.90;;;;;;5093075;28;20568;-75
2022/03/26 09:03:30;;;;;;;34.07;23.00;;;13.30;50.80;;;;;;5093760;28;20254;-76
2022/03/26 09:05:57;;;;;;;32.40;22.47;;;13.40;51.20;;;;;;5096274;28;20277;-74
2022/03/26 09:08:24;;;;;;;31.90;23.17;;;13.90;50.00;;;;;;5096131;28;20617;-75
2022/03/26 09:10:52;;;;;;;30.73;22.23;;;14.20;48.10;;;;;;5095962;28;20550;-77
2022/03/26 09:13:19;;;;;;;36.67;23.03;;;14.50;47.20;;;;;;5096034;28;20226;-76
2022/03/26 09:15:45;;;;;;;34.33;22.33;;;14.60;45.50;;;;;;5096065;28;20218;-76
2022/03/26 09:18:12;;;;;;;34.13;23.10;;;14.80;44.60;;;;;;5095913;28;20200;-77
2022/03/26 09:20:39;;;;;;;30.70;22.23;;;15.00;42.00;;;;;;5095957;28;20193;-76
2022/03/26 09:23:06;;;;;;;29.75;21.65;;;15.10;39.80;;;;;;5096028;28;20203;-76
2022/03/26 09:25:34;;;;;;;30.90;22.98;;;15.50;38.30;;;;;;5095527;28;20234;-78
2022/03/26 09:28:03;;;;;;;28.83;21.00;;;15.50;35.20;;;;;;5095716;28;20200;-76
2022/03/26 09:30:31;;;;;;;31.48;21.73;;;15.90;34.90;;;;;;5095476;28;20717;-76
2022/03/26 09:32:58;;;;;;;29.67;21.52;;;15.60;32.50;;;;;;5095473;28;20655;-76
2022/03/26 09:35:25;;;;;;;30.17;21.42;;;15.80;31.90;;;;;;5095486;28;20230;-76
2022/03/26 09:37:52;;;;;;;29.05;21.73;;;16.10;31.70;;;;;;5095401;28;20192;-76
2022/03/26 09:40:21;;;;;;;32.78;22.60;;;16.50;29.80;;;;;;5095285;28;20227;-76
2022/03/26 09:42:48;;;;;;;30.77;21.27;;;16.80;29.30;;;;;;5095358;28;20246;-76
2022/03/26 09:45:17;;;;;;;29.88;20.75;;;17.10;28.30;;;;;;5096883;28;20250;-75
2022/03/26 09:47:44;;;;;;;26.83;20.75;;;17.10;27.20;;;;;;5095426;28;20196;-76
2022/03/26 09:50:12;;;;;;;26.67;19.52;;;17.20;26.10;;;;;;5095333;28;20245;-76
2022/03/26 09:52:39;;;;;;;26.30;19.58;;;17.60;23.20;;;;;;5095198;28;20246;-76
2022/03/26 09:55:11;;;;;;;26.65;21.08;;;17.50;23.50;;;;;;5094885;28;20192;-79
2022/03/26 09:57:38;;;;;;;31.40;20.35;;;17.70;23.80;;;;;;5094979;28;20196;-78
2022/03/26 10:00:06;;;;;;;30.70;21.08;;;18.20;23.00;;;;;;5095145;28;20211;-77
2022/03/26 10:02:34;;;;;;;29.83;21.75;;;18.40;22.40;;;;;;5095509;28;20241;-78
2022/03/26 10:05:01;;;;;;;25.77;20.80;;;18.30;21.90;;;;;;5094970;28;20192;-78
2022/03/26 10:07:29;;;;;;;30.02;22.50;;;18.50;21.70;;;;;;5095082;28;20643;-78
2022/03/26 10:09:56;;;;;;;24.45;21.10;;;18.80;21.60;;;;;;5095153;28;20199;-77
2022/03/26 10:12:26;;;;;;;25.55;20.48;;;18.90;22.40;;;;;;5095020;28;20201;-78
2022/03/26 10:14:54;;;;;;;25.75;20.63;;;18.80;21.60;;;;;;5094318;28;20197;-78
2022/03/26 10:17:24;;;;;;;29.10;20.77;;;18.90;20.10;;;;;;5094889;28;20230;-77
2022/03/26 10:19:55;;;;;;;27.40;20.67;;;18.90;19.80;;;;;;5095084;28;20241;-77
2022/03/26 10:22:24;;;;;;;23.15;18.58;;;19.30;19.30;;;;;;5094631;28;20228;-76
2022/03/26 10:24:51;;;;;;;26.45;21.50;;;19.40;17.30;;;;;;5094523;28;20257;-78
2022/03/26 10:27:18;;;;;;;23.95;19.38;;;19.60;18.10;;;;;;5094858;28;20273;-78
2022/03/26 10:29:49;;;;;;;27.42;19.92;;;19.70;16.70;;;;;;5094626;28;20204;-77
2022/03/26 10:32:41;;;;;;;25.27;18.98;;;19.70;17.30;;;;;;5094547;28;20290;-79
2022/03/26 10:35:25;;;;;;;20.52;18.27;;;20.40;16.40;;;;;;5094254;28;20196;-77
2022/03/26 10:37:58;;;;;;;25.33;18.60;;;21.00;15.20;;;;;;5093048;28;20197;-79
2022/03/26 10:40:28;;;;;;;24.55;19.17;;;21.00;15.40;;;;;;5094622;28;20211;-78
2022/03/26 10:42:57;;;;;;;20.52;15.95;;;21.70;14.80;;;;;;5094539;28;20223;-78
2022/03/26 10:45:24;;;;;;;21.23;15.85;;;21.80;12.70;;;;;;5094627;28;20196;-77
2022/03/26 10:47:54;;;;;;;22.85;18.65;;;22.20;11.90;;;;;;5094490;28;20228;-79
2022/03/26 10:50:21;;;;;;;23.80;17.88;;;22.70;12.30;;;;;;5094314;28;20193;-79
2022/03/26 10:52:49;;;;;;;21.25;17.35;;;22.70;12.30;;;;;;5095090;28;20196;-77
2022/03/26 10:55:18;;;;;;;21.55;19.35;;;23.20;12.00;;;;;;5094315;28;20196;-78
2022/03/26 10:57:46;;;;;;;22.95;20.55;;;23.70;12.00;;;;;;5094011;28;20223;-79
2022/03/26 11:00:14;;;;;;;26.13;21.00;;;24.00;12.50;;;;;;5093897;28;20245;-80
2022/03/26 11:02:41;;;;;;;23.63;20.75;;;24.10;12.80;;;;;;5094818;28;20203;-79
2022/03/26 11:05:09;;;;;;;28.05;20.85;;;24.40;12.70;;;;;;5094144;28;20232;-79
2022/03/26 11:07:37;;;;;;;22.50;19.50;;;24.10;12.20;;;;;;5094467;28;20228;-78
2022/03/26 11:10:08;;;;;;;20.80;18.58;;;24.30;11.30;;;;;;5094333;28;20200;-77
2022/03/26 11:12:37;;;;;;;23.25;19.15;;;24.90;10.60;;;;;;5094500;28;20301;-77
2022/03/26 11:15:07;;;;;;;20.35;18.35;;;25.10;10.50;;;;;;5094457;28;20199;-75
2022/03/26 11:17:46;;;;;;;20.08;17.77;;;25.30;9.70;;;;;;5094715;28;20264;-79
2022/03/26 11:20:34;;;;;;;21.48;18.25;;;25.40;10.40;;;;;;5094606;28;20199;-80
2022/03/26 11:23:17;;;;;;;23.58;20.55;;;25.70;9.10;;;;;;5094151;28;20319;-78
2022/03/26 11:26:02;;;;;;;23.45;18.77;;;24.70;10.40;;;;;;5093921;28;20293;-81
2022/03/26 11:28:42;;;;;;;21.02;18.77;;;25.90;9.80;;;;;;5093476;28;20248;-77
2022/03/26 11:31:13;;;;;;;22.25;18.27;;;26.40;8.60;;;;;;5093774;28;20551;-78
2022/03/26 11:33:40;;;;;;;22.60;20.20;;;26.60;8.40;;;;;;5093709;28;20712;-79
2022/03/26 11:36:08;;;;;;;25.63;21.13;;;25.20;9.30;;;;;;5094024;28;20199;-78
2022/03/26 11:38:35;;;;;;;22.33;17.38;;;26.10;9.40;;;;;;5093962;28;20196;-80
2022/03/26 11:41:04;;;;;;;20.30;17.70;;;26.60;7.10;;;;;;5093458;28;20245;-78
2022/03/26 11:43:53;;;;;;;20.23;18.25;;;27.00;7.00;;;;;;5093292;28;20754;-78
2022/03/26 11:52:14;;;;;;;23.15;17.10;;;27.50;6.80;;;;;;5093593;28;20199;-78
2022/03/26 11:54:41;;;;;;;21.13;18.92;;;27.70;6.40;;;;;;5093495;28;20192;-87
2022/03/26 11:57:10;;;;;;;21.80;19.50;;;27.20;6.50;;;;;;5094914;28;20271;-80
2022/03/26 11:59:38;;;;;;;24.83;19.85;;;27.70;6.90;;;;;;5094665;28;20253;-79
2022/03/26 12:02:25;;;;;;;20.83;18.70;;;28.10;6.70;;;;;;5093848;28;20215;-79
2022/03/26 12:04:54;;;;;;;19.55;17.40;;;27.90;6.60;;;;;;5094475;28;20222;-81
2022/03/26 12:07:23;;;;;;;22.55;19.17;;;26.80;6.80;;;;;;5093934;28;20227;-79
2022/03/26 12:10:04;;;;;;;25.30;18.42;;;27.20;6.40;;;;;;5093184;28;20682;-80
2022/03/26 12:12:52;;;;;;;22.15;18.90;;;27.10;6.20;;;;;;5093183;28;20199;-78
2022/03/26 12:15:27;;;;;;;21.17;18.33;;;27.00;7.00;;;;;;5092781;28;20226;-78
2022/03/26 12:18:04;;;;;;;21.70;18.63;;;27.70;6.50;;;;;;5093194;28;20195;-77
2022/03/26 12:20:34;;;;;;;26.48;18.80;;;27.80;6.20;;;;;;5092931;28;20195;-78
2022/03/26 12:23:07;;;;;;;18.90;15.90;;;27.80;5.80;;;;;;5093166;28;20220;-77
2022/03/26 12:25:38;;;;;;;18.73;16.63;;;28.60;5.30;;;;;;5093322;28;20540;-79
2022/03/26 12:28:07;;;;;;;20.63;18.38;;;29.00;4.90;;;;;;5093223;28;20204;-77
2022/03/26 12:30:34;;;;;;;20.55;18.45;;;29.40;4.70;;;;;;5093011;28;20199;-79
2022/03/26 12:33:06;;;;;;;23.48;19.90;;;29.90;4.70;;;;;;5093274;28;20635;-77
2022/03/26 12:35:33;;;;;;;21.25;18.73;;;30.10;4.60;;;;;;5093310;28;20196;-77
2022/03/26 12:38:03;;;;;;;21.63;18.80;;;30.10;4.60;;;;;;5093409;28;20554;-77
2022/03/26 12:40:30;;;;;;;21.42;18.92;;;29.60;4.40;;;;;;5097168;28;20191;-78
2022/03/26 12:42:56;;;;;;;23.20;19.55;;;29.60;4.90;;;;;;5096960;28;20253;-78